sensor_id;sensor_type;location;lat;lon;timestamp;temperature;humidity
1766;DHT22;880;52.452;8.656;2023-02-20T00:00:36;7.10;99.90
1766;DHT22;880;52.452;8.656;2023-02-20T00:03:05;7.10;99.90
1766;DHT22;880;52.452;8.656;2023-02-20T00:05:32;7.10;99.90
1766;DHT22;880;52.452;8.656;2023-02-20T00:07:59;7.10;99.90
1766;DHT22;880;52.452;8.656;2023-02-20T00:10:26;7.00;99.90
1766;DHT22;880;52.452;8.656;2023-02-20T00:12:54;7.00;99.90
1766;DHT22;880;52.452;8.656;2023-02-20T00:15:21;7.00;99.90
1766;DHT22;880;52.452;8.656;2023-02-20T00:17:48;7.00;99.90
1766;DHT22;880;52.452;8.656;2023-02-20T00:20:19;7.00;99.90
1766;DHT22;880;52.452;8.656;2023-02-20T00:22:48;7.10;99.90
1766;DHT22;880;52.452;8.656;2023-02-20T00:25:16;7.00;99.90
1766;DHT22;880;52.452;8.656;2023-02-20T00:27:44;7.00;99.90
1766;DHT22;880;52.452;8.656;2023-02-20T00:30:21;7.10;99.90
1766;DHT22;880;52.452;8.656;2023-02-20T00:32:50;7.10;99.90
1766;DHT22;880;52.452;8.656;2023-02-20T00:35:20;7.00;99.90
1766;DHT22;880;52.452;8.656;2023-02-20T00:37:49;7.10;99.90
1766;DHT22;880;52.452;8.656;2023-02-20T00:40:18;7.10;99.90
1766;DHT22;880;52.452;8.656;2023-02-20T00:42:46;7.10;99.90
1766;DHT22;880;52.452;8.656;2023-02-20T00:45:14;7.10;99.90
1766;DHT22;880;52.452;8.656;2023-02-20T00:47:43;7.10;99.90
1766;DHT22;880;52.452;8.656;2023-02-20T00:50:11;7.10;99.90
1766;DHT22;880;52.452;8.656;2023-02-20T00:52:38;7.00;99.90
1766;DHT22;880;52.452;8.656;2023-02-20T00:55:06;7.10;99.90
1766;DHT22;880;52.452;8.656;2023-02-20T00:57:33;7.10;99.90
1766;DHT22;880;52.452;8.656;2023-02-20T01:00:00;7.10;99.90
1766;DHT22;880;52.452;8.656;2023-02-20T01:02:27;7.10;99.90
1766;DHT22;880;52.452;8.656;2023-02-20T01:04:54;7.10;99.90
1766;DHT22;880;52.452;8.656;2023-02-20T01:07:22;7.00;99.90
1766;DHT22;880;52.452;8.656;2023-02-20T01:09:49;7.00;99.90
1766;DHT22;880;52.452;8.656;2023-02-20T01:12:16;7.00;99.90
1766;DHT22;880;52.452;8.656;2023-02-20T01:14:43;7.00;99.90
1766;DHT22;880;52.452;8.656;2023-02-20T01:17:11;7.00;99.90
1766;DHT22;880;52.452;8.656;2023-02-20T01:19:39;7.00;99.90
1766;DHT22;880;52.452;8.656;2023-02-20T01:22:06;7.00;99.90
1766;DHT22;880;52.452;8.656;2023-02-20T01:24:34;7.00;99.90
1766;DHT22;880;52.452;8.656;2023-02-20T01:27:01;7.10;99.90
1766;DHT22;880;52.452;8.656;2023-02-20T01:29:29;7.00;99.90
1766;DHT22;880;52.452;8.656;2023-02-20T01:31:57;7.00;99.90
1766;DHT22;880;52.452;8.656;2023-02-20T01:34:25;7.00;99.90
1766;DHT22;880;52.452;8.656;2023-02-20T01:36:54;7.00;99.90
1766;DHT22;880;52.452;8.656;2023-02-20T01:39:27;7.10;99.90
1766;DHT22;880;52.452;8.656;2023-02-20T01:41:55;7.10;99.90
1766;DHT22;880;52.452;8.656;2023-02-20T01:44:29;7.10;99.90
1766;DHT22;880;52.452;8.656;2023-02-20T01:46:59;7.00;99.90
1766;DHT22;880;52.452;8.656;2023-02-20T01:49:38;7.10;99.90
1766;DHT22;880;52.452;8.656;2023-02-20T01:52:13;7.10;99.90
1766;DHT22;880;52.452;8.656;2023-02-20T01:54:45;7.10;99.90
1766;DHT22;880;52.452;8.656;2023-02-20T01:57:19;7.10;99.90
1766;DHT22;880;52.452;8.656;2023-02-20T01:59:49;7.10;99.90
1766;DHT22;880;52.452;8.656;2023-02-20T02:02:17;7.10;99.90
1766;DHT22;880;52.452;8.656;2023-02-20T02:04:47;7.00;99.90
1766;DHT22;880;52.452;8.656;2023-02-20T02:07:15;7.00;99.90
1766;DHT22;880;52.452;8.656;2023-02-20T02:12:12;7.10;99.90
1766;DHT22;880;52.452;8.656;2023-02-20T02:14:39;7.10;99.90
1766;DHT22;880;52.452;8.656;2023-02-20T02:17:24;7.10;99.90
1766;DHT22;880;52.452;8.656;2023-02-20T02:20:37;7.20;99.90
1766;DHT22;880;52.452;8.656;2023-02-20T02:30:13;7.30;99.90
1766;DHT22;880;52.452;8.656;2023-02-20T02:33:27;7.30;99.90
1766;DHT22;880;52.452;8.656;2023-02-20T02:44:39;7.30;99.90
1766;DHT22;880;52.452;8.656;2023-02-20T02:47:32;7.30;99.90
1766;DHT22;880;52.452;8.656;2023-02-20T02:50:07;7.30;99.90
1766;DHT22;880;52.452;8.656;2023-02-20T02:52:38;7.20;99.90
1766;DHT22;880;52.452;8.656;2023-02-20T02:55:20;7.30;99.90
1766;DHT22;880;52.452;8.656;2023-02-20T02:57:52;7.30;99.90
1766;DHT22;880;52.452;8.656;2023-02-20T03:00:57;7.30;99.90
1766;DHT22;880;52.452;8.656;2023-02-20T03:03:20;7.30;99.90
1766;DHT22;880;52.452;8.656;2023-02-20T03:06:05;7.30;99.90
1766;DHT22;880;52.452;8.656;2023-02-20T03:08:43;7.30;99.90
1766;DHT22;880;52.452;8.656;2023-02-20T03:11:20;7.30;99.90
1766;DHT22;880;52.452;8.656;2023-02-20T03:14:04;7.40;99.90
1766;DHT22;880;52.452;8.656;2023-02-20T03:17:32;7.40;99.90
1766;DHT22;880;52.452;8.656;2023-02-20T03:20:09;7.40;99.90
1766;DHT22;880;52.452;8.656;2023-02-20T03:22:42;7.40;99.90
1766;DHT22;880;52.452;8.656;2023-02-20T03:27:57;7.50;99.90
1766;DHT22;880;52.452;8.656;2023-02-20T03:30:42;7.40;99.90
1766;DHT22;880;52.452;8.656;2023-02-20T03:33:42;7.50;99.90
1766;DHT22;880;52.452;8.656;2023-02-20T03:36:40;7.50;99.90
1766;DHT22;880;52.452;8.656;2023-02-20T03:39:54;7.50;99.90
1766;DHT22;880;52.452;8.656;2023-02-20T03:42:47;7.50;99.90
1766;DHT22;880;52.452;8.656;2023-02-20T03:45:38;7.50;99.90
1766;DHT22;880;52.452;8.656;2023-02-20T03:48:10;7.50;99.90
1766;DHT22;880;52.452;8.656;2023-02-20T03:50:42;7.50;99.90
1766;DHT22;880;52.452;8.656;2023-02-20T03:53:09;7.50;99.90
1766;DHT22;880;52.452;8.656;2023-02-20T03:55:36;7.50;99.90
1766;DHT22;880;52.452;8.656;2023-02-20T03:58:08;7.50;99.90
1766;DHT22;880;52.452;8.656;2023-02-20T04:00:43;7.50;99.90
1766;DHT22;880;52.452;8.656;2023-02-20T04:03:20;7.60;99.90
1766;DHT22;880;52.452;8.656;2023-02-20T04:05:54;7.60;99.90
1766;DHT22;880;52.452;8.656;2023-02-20T04:08:43;7.50;99.90
1766;DHT22;880;52.452;8.656;2023-02-20T04:11:21;7.60;99.90
1766;DHT22;880;52.452;8.656;2023-02-20T04:13:52;7.50;99.90
1766;DHT22;880;52.452;8.656;2023-02-20T04:16:21;7.50;99.90
1766;DHT22;880;52.452;8.656;2023-02-20T04:18:49;7.50;99.90
1766;DHT22;880;52.452;8.656;2023-02-20T04:21:29;7.50;99.90
1766;DHT22;880;52.452;8.656;2023-02-20T04:24:05;7.50;99.90
1766;DHT22;880;52.452;8.656;2023-02-20T04:26:34;7.50;99.90
1766;DHT22;880;52.452;8.656;2023-02-20T04:29:03;7.40;99.90
1766;DHT22;880;52.452;8.656;2023-02-20T04:31:31;7.40;99.90
1766;DHT22;880;52.452;8.656;2023-02-20T04:33:58;7.50;99.90
1766;DHT22;880;52.452;8.656;2023-02-20T04:36:26;7.50;99.90
1766;DHT22;880;52.452;8.656;2023-02-20T04:38:56;7.60;99.90
1766;DHT22;880;52.452;8.656;2023-02-20T04:41:27;7.60;99.90
1766;DHT22;880;52.452;8.656;2023-02-20T04:43:54;7.60;99.90
1766;DHT22;880;52.452;8.656;2023-02-20T04:46:41;7.60;99.90
1766;DHT22;880;52.452;8.656;2023-02-20T04:49:08;7.60;99.90
1766;DHT22;880;52.452;8.656;2023-02-20T04:51:36;7.60;99.90
1766;DHT22;880;52.452;8.656;2023-02-20T04:54:03;7.60;99.90
1766;DHT22;880;52.452;8.656;2023-02-20T04:56:30;7.60;99.90
1766;DHT22;880;52.452;8.656;2023-02-20T04:58:57;7.60;99.90
1766;DHT22;880;52.452;8.656;2023-02-20T05:01:24;7.60;99.90
1766;DHT22;880;52.452;8.656;2023-02-20T05:03:51;7.60;99.90
1766;DHT22;880;52.452;8.656;2023-02-20T05:06:18;7.60;99.90
1766;DHT22;880;52.452;8.656;2023-02-20T05:08:45;7.60;99.90
1766;DHT22;880;52.452;8.656;2023-02-20T05:11:16;7.60;99.90
1766;DHT22;880;52.452;8.656;2023-02-20T05:13:43;7.60;99.90
1766;DHT22;880;52.452;8.656;2023-02-20T05:16:10;7.60;99.90
1766;DHT22;880;52.452;8.656;2023-02-20T05:18:39;7.60;99.90
1766;DHT22;880;52.452;8.656;2023-02-20T05:21:06;7.50;99.90
1766;DHT22;880;52.452;8.656;2023-02-20T05:23:51;7.60;99.90
1766;DHT22;880;52.452;8.656;2023-02-20T05:26:20;7.60;99.90
1766;DHT22;880;52.452;8.656;2023-02-20T05:28:47;7.50;99.90
1766;DHT22;880;52.452;8.656;2023-02-20T05:31:14;7.50;99.90
1766;DHT22;880;52.452;8.656;2023-02-20T05:33:43;7.40;99.90
1766;DHT22;880;52.452;8.656;2023-02-20T05:36:10;7.50;99.90
1766;DHT22;880;52.452;8.656;2023-02-20T05:38:38;7.40;99.90
1766;DHT22;880;52.452;8.656;2023-02-20T05:41:07;7.50;99.90
1766;DHT22;880;52.452;8.656;2023-02-20T05:43:33;7.40;99.90
1766;DHT22;880;52.452;8.656;2023-02-20T05:46:00;7.40;99.90
1766;DHT22;880;52.452;8.656;2023-02-20T05:48:27;7.40;99.90
1766;DHT22;880;52.452;8.656;2023-02-20T05:50:54;7.40;99.90
1766;DHT22;880;52.452;8.656;2023-02-20T05:53:21;7.40;99.90
1766;DHT22;880;52.452;8.656;2023-02-20T05:55:48;7.40;99.90
1766;DHT22;880;52.452;8.656;2023-02-20T05:58:15;7.40;99.90
1766;DHT22;880;52.452;8.656;2023-02-20T06:00:42;7.40;99.90
1766;DHT22;880;52.452;8.656;2023-02-20T06:03:09;7.40;99.90
1766;DHT22;880;52.452;8.656;2023-02-20T06:05:36;7.30;99.90
1766;DHT22;880;52.452;8.656;2023-02-20T06:08:03;7.40;99.90
1766;DHT22;880;52.452;8.656;2023-02-20T06:10:30;7.40;99.90
1766;DHT22;880;52.452;8.656;2023-02-20T06:12:58;7.30;99.90
1766;DHT22;880;52.452;8.656;2023-02-20T06:15:25;7.30;99.90
1766;DHT22;880;52.452;8.656;2023-02-20T06:17:53;7.40;99.90
1766;DHT22;880;52.452;8.656;2023-02-20T06:20:20;7.40;99.90
1766;DHT22;880;52.452;8.656;2023-02-20T06:22:47;7.30;99.90
1766;DHT22;880;52.452;8.656;2023-02-20T06:25:15;7.30;99.90
1766;DHT22;880;52.452;8.656;2023-02-20T06:27:42;7.30;99.90
1766;DHT22;880;52.452;8.656;2023-02-20T06:30:09;7.30;99.90
1766;DHT22;880;52.452;8.656;2023-02-20T06:32:37;7.20;99.90
1766;DHT22;880;52.452;8.656;2023-02-20T06:35:04;7.10;99.90
1766;DHT22;880;52.452;8.656;2023-02-20T06:37:32;7.10;99.90
1766;DHT22;880;52.452;8.656;2023-02-20T06:39:58;7.00;99.90
1766;DHT22;880;52.452;8.656;2023-02-20T06:42:25;7.00;99.90
1766;DHT22;880;52.452;8.656;2023-02-20T06:44:52;7.00;99.90
1766;DHT22;880;52.452;8.656;2023-02-20T06:47:19;7.00;99.90
1766;DHT22;880;52.452;8.656;2023-02-20T06:49:46;7.10;99.90
1766;DHT22;880;52.452;8.656;2023-02-20T06:52:13;7.00;99.90
1766;DHT22;880;52.452;8.656;2023-02-20T06:54:40;7.00;99.90
1766;DHT22;880;52.452;8.656;2023-02-20T06:57:08;7.00;99.90
1766;DHT22;880;52.452;8.656;2023-02-20T06:59:35;7.00;99.90
1766;DHT22;880;52.452;8.656;2023-02-20T07:02:10;7.00;99.90
1766;DHT22;880;52.452;8.656;2023-02-20T07:04:38;7.00;99.90
1766;DHT22;880;52.452;8.656;2023-02-20T07:07:05;7.00;99.90
1766;DHT22;880;52.452;8.656;2023-02-20T07:09:32;7.00;99.90
1766;DHT22;880;52.452;8.656;2023-02-20T07:11:59;7.00;99.90
1766;DHT22;880;52.452;8.656;2023-02-20T07:14:26;6.90;99.90
1766;DHT22;880;52.452;8.656;2023-02-20T07:16:53;7.00;99.90
1766;DHT22;880;52.452;8.656;2023-02-20T07:19:20;7.00;99.90
1766;DHT22;880;52.452;8.656;2023-02-20T07:21:47;7.10;99.90
1766;DHT22;880;52.452;8.656;2023-02-20T07:24:14;7.10;99.90
1766;DHT22;880;52.452;8.656;2023-02-20T07:26:41;7.10;99.90
1766;DHT22;880;52.452;8.656;2023-02-20T07:29:08;7.10;99.90
1766;DHT22;880;52.452;8.656;2023-02-20T07:31:35;7.10;99.90
1766;DHT22;880;52.452;8.656;2023-02-20T07:34:02;7.20;99.90
1766;DHT22;880;52.452;8.656;2023-02-20T07:36:34;7.20;99.90
1766;DHT22;880;52.452;8.656;2023-02-20T07:39:03;7.20;99.90
1766;DHT22;880;52.452;8.656;2023-02-20T07:41:32;7.20;99.90
1766;DHT22;880;52.452;8.656;2023-02-20T07:44:02;7.20;99.90
1766;DHT22;880;52.452;8.656;2023-02-20T07:46:30;7.20;99.90
1766;DHT22;880;52.452;8.656;2023-02-20T07:49:01;7.30;99.90
1766;DHT22;880;52.452;8.656;2023-02-20T07:51:29;7.30;99.90
1766;DHT22;880;52.452;8.656;2023-02-20T07:53:57;7.40;99.90
1766;DHT22;880;52.452;8.656;2023-02-20T07:56:24;7.40;99.90
1766;DHT22;880;52.452;8.656;2023-02-20T07:58:51;7.40;99.90
1766;DHT22;880;52.452;8.656;2023-02-20T08:01:18;7.40;99.90
1766;DHT22;880;52.452;8.656;2023-02-20T08:03:45;7.50;99.90
1766;DHT22;880;52.452;8.656;2023-02-20T08:06:16;7.40;99.90
1766;DHT22;880;52.452;8.656;2023-02-20T08:08:49;7.50;99.90
1766;DHT22;880;52.452;8.656;2023-02-20T08:11:18;7.50;99.90
1766;DHT22;880;52.452;8.656;2023-02-20T08:13:45;7.60;99.90
1766;DHT22;880;52.452;8.656;2023-02-20T08:16:12;7.70;99.90
1766;DHT22;880;52.452;8.656;2023-02-20T08:18:40;7.70;99.90
1766;DHT22;880;52.452;8.656;2023-02-20T08:21:07;7.70;99.90
1766;DHT22;880;52.452;8.656;2023-02-20T08:23:34;7.70;99.90
1766;DHT22;880;52.452;8.656;2023-02-20T08:26:02;7.70;99.90
1766;DHT22;880;52.452;8.656;2023-02-20T08:28:30;7.80;99.90
1766;DHT22;880;52.452;8.656;2023-02-20T08:30:57;7.80;99.90
1766;DHT22;880;52.452;8.656;2023-02-20T08:33:24;7.80;99.90
1766;DHT22;880;52.452;8.656;2023-02-20T08:35:51;7.80;99.90
1766;DHT22;880;52.452;8.656;2023-02-20T08:38:37;7.90;99.90
1766;DHT22;880;52.452;8.656;2023-02-20T08:41:06;7.90;99.90
1766;DHT22;880;52.452;8.656;2023-02-20T08:43:35;7.90;99.90
1766;DHT22;880;52.452;8.656;2023-02-20T08:46:04;7.90;99.90
1766;DHT22;880;52.452;8.656;2023-02-20T08:48:33;7.90;99.90
1766;DHT22;880;52.452;8.656;2023-02-20T08:51:00;7.90;99.90
1766;DHT22;880;52.452;8.656;2023-02-20T08:53:27;7.90;99.90
1766;DHT22;880;52.452;8.656;2023-02-20T08:55:54;7.90;99.90
1766;DHT22;880;52.452;8.656;2023-02-20T08:58:23;8.00;99.90
1766;DHT22;880;52.452;8.656;2023-02-20T09:00:52;7.90;99.90
1766;DHT22;880;52.452;8.656;2023-02-20T09:03:20;8.00;99.90
1766;DHT22;880;52.452;8.656;2023-02-20T09:05:47;8.00;99.90
1766;DHT22;880;52.452;8.656;2023-02-20T09:08:14;8.10;99.90
1766;DHT22;880;52.452;8.656;2023-02-20T09:10:41;8.00;99.90
1766;DHT22;880;52.452;8.656;2023-02-20T09:13:08;8.10;99.90
1766;DHT22;880;52.452;8.656;2023-02-20T09:29:12;8.10;99.90
1766;DHT22;880;52.452;8.656;2023-02-20T09:31:39;8.30;99.90
1766;DHT22;880;52.452;8.656;2023-02-20T09:34:06;8.30;99.90
1766;DHT22;880;52.452;8.656;2023-02-20T09:36:33;8.30;99.90
1766;DHT22;880;52.452;8.656;2023-02-20T09:39:00;8.30;99.90
1766;DHT22;880;52.452;8.656;2023-02-20T09:41:44;8.30;99.90
1766;DHT22;880;52.452;8.656;2023-02-20T09:44:29;8.30;99.90
1766;DHT22;880;52.452;8.656;2023-02-20T09:47:22;8.30;99.90
1766;DHT22;880;52.452;8.656;2023-02-20T09:49:56;8.20;99.90
1766;DHT22;880;52.452;8.656;2023-02-20T09:52:26;8.30;99.90
1766;DHT22;880;52.452;8.656;2023-02-20T09:55:02;8.30;99.90
1766;DHT22;880;52.452;8.656;2023-02-20T09:57:34;8.30;99.90
1766;DHT22;880;52.452;8.656;2023-02-20T10:00:07;8.30;99.90
1766;DHT22;880;52.452;8.656;2023-02-20T10:02:40;8.30;99.90
1766;DHT22;880;52.452;8.656;2023-02-20T10:05:19;8.30;99.90
1766;DHT22;880;52.452;8.656;2023-02-20T10:07:50;8.30;99.90
1766;DHT22;880;52.452;8.656;2023-02-20T10:10:23;8.30;99.90
1766;DHT22;880;52.452;8.656;2023-02-20T10:19:33;8.40;99.90
1766;DHT22;880;52.452;8.656;2023-02-20T10:22:31;8.40;99.90
1766;DHT22;880;52.452;8.656;2023-02-20T10:25:08;8.40;99.90
1766;DHT22;880;52.452;8.656;2023-02-20T10:27:47;8.40;99.90
1766;DHT22;880;52.452;8.656;2023-02-20T10:30:35;8.40;99.90
1766;DHT22;880;52.452;8.656;2023-02-20T10:35:40;8.40;99.90
1766;DHT22;880;52.452;8.656;2023-02-20T10:38:12;8.40;99.90
1766;DHT22;880;52.452;8.656;2023-02-20T10:41:04;8.50;99.90
1766;DHT22;880;52.452;8.656;2023-02-20T10:43:57;8.50;99.90
1766;DHT22;880;52.452;8.656;2023-02-20T10:46:49;8.50;99.90
1766;DHT22;880;52.452;8.656;2023-02-20T10:49:30;8.50;99.90
1766;DHT22;880;52.452;8.656;2023-02-20T10:52:05;8.60;99.90
1766;DHT22;880;52.452;8.656;2023-02-20T10:54:46;8.60;99.90
1766;DHT22;880;52.452;8.656;2023-02-20T10:57:27;8.60;99.90
1766;DHT22;880;52.452;8.656;2023-02-20T11:00:10;8.60;99.90
1766;DHT22;880;52.452;8.656;2023-02-20T11:02:47;8.60;99.90
1766;DHT22;880;52.452;8.656;2023-02-20T11:05:25;8.70;99.90
1766;DHT22;880;52.452;8.656;2023-02-20T11:07:54;8.60;99.90
1766;DHT22;880;52.452;8.656;2023-02-20T11:10:21;8.70;99.90
1766;DHT22;880;52.452;8.656;2023-02-20T11:12:56;8.70;99.90
1766;DHT22;880;52.452;8.656;2023-02-20T11:15:29;8.70;99.90
1766;DHT22;880;52.452;8.656;2023-02-20T11:17:58;8.70;99.90
1766;DHT22;880;52.452;8.656;2023-02-20T11:22:59;8.80;99.90
1766;DHT22;880;52.452;8.656;2023-02-20T11:28:28;8.90;99.90
1766;DHT22;880;52.452;8.656;2023-02-20T11:31:04;8.90;99.90
1766;DHT22;880;52.452;8.656;2023-02-20T11:33:35;8.90;99.90
1766;DHT22;880;52.452;8.656;2023-02-20T11:36:16;8.90;99.90
1766;DHT22;880;52.452;8.656;2023-02-20T11:38:57;8.90;99.90
1766;DHT22;880;52.452;8.656;2023-02-20T11:41:34;9.00;99.90
1766;DHT22;880;52.452;8.656;2023-02-20T11:49:47;9.10;99.90
1766;DHT22;880;52.452;8.656;2023-02-20T11:52:19;9.10;99.90
1766;DHT22;880;52.452;8.656;2023-02-20T11:55:07;9.10;99.90
1766;DHT22;880;52.452;8.656;2023-02-20T11:57:46;9.10;99.90
1766;DHT22;880;52.452;8.656;2023-02-20T12:00:44;9.10;99.90
1766;DHT22;880;52.452;8.656;2023-02-20T12:03:13;9.10;99.90
1766;DHT22;880;52.452;8.656;2023-02-20T12:05:46;9.00;99.90
1766;DHT22;880;52.452;8.656;2023-02-20T12:11:20;9.00;99.90
1766;DHT22;880;52.452;8.656;2023-02-20T12:13:53;9.00;99.90
1766;DHT22;880;52.452;8.656;2023-02-20T12:25:26;9.00;99.90
1766;DHT22;880;52.452;8.656;2023-02-20T12:34:20;9.00;99.90
1766;DHT22;880;52.452;8.656;2023-02-20T12:37:02;9.00;99.90
1766;DHT22;880;52.452;8.656;2023-02-20T12:43:17;8.90;99.90
1766;DHT22;880;52.452;8.656;2023-02-20T12:46:20;9.00;99.90
1766;DHT22;880;52.452;8.656;2023-02-20T12:49:15;9.00;99.90
1766;DHT22;880;52.452;8.656;2023-02-20T12:52:28;9.00;99.90
1766;DHT22;880;52.452;8.656;2023-02-20T12:55:21;8.90;99.90
1766;DHT22;880;52.452;8.656;2023-02-20T13:00:52;9.00;99.90
1766;DHT22;880;52.452;8.656;2023-02-20T13:07:03;9.00;99.90
1766;DHT22;880;52.452;8.656;2023-02-20T13:09:36;9.10;99.90
1766;DHT22;880;52.452;8.656;2023-02-20T13:12:12;9.10;99.90
1766;DHT22;880;52.452;8.656;2023-02-20T13:14:52;9.10;99.90
1766;DHT22;880;52.452;8.656;2023-02-20T13:17:51;9.20;99.90
1766;DHT22;880;52.452;8.656;2023-02-20T13:20:28;9.10;99.90
1766;DHT22;880;52.452;8.656;2023-02-20T13:28:28;9.10;99.90
1766;DHT22;880;52.452;8.656;2023-02-20T13:31:07;9.10;99.90
1766;DHT22;880;52.452;8.656;2023-02-20T13:39:25;9.00;99.90
1766;DHT22;880;52.452;8.656;2023-02-20T13:49:57;8.90;99.90
1766;DHT22;880;52.452;8.656;2023-02-20T13:54:58;8.90;99.90
1766;DHT22;880;52.452;8.656;2023-02-20T13:57:31;8.90;99.90
1766;DHT22;880;52.452;8.656;2023-02-20T14:08:32;9.00;99.90
1766;DHT22;880;52.452;8.656;2023-02-20T14:13:54;8.90;99.90
1766;DHT22;880;52.452;8.656;2023-02-20T14:16:33;8.90;99.90
1766;DHT22;880;52.452;8.656;2023-02-20T14:19:20;8.90;99.90
1766;DHT22;880;52.452;8.656;2023-02-20T14:21:49;8.90;99.90
1766;DHT22;880;52.452;8.656;2023-02-20T14:26:45;8.90;99.90
1766;DHT22;880;52.452;8.656;2023-02-20T14:29:28;8.80;99.90
1766;DHT22;880;52.452;8.656;2023-02-20T14:31:59;8.80;99.90
1766;DHT22;880;52.452;8.656;2023-02-20T14:37:35;8.80;99.90
1766;DHT22;880;52.452;8.656;2023-02-20T14:40:32;8.80;99.90
1766;DHT22;880;52.452;8.656;2023-02-20T14:43:03;8.90;99.90
1766;DHT22;880;52.452;8.656;2023-02-20T14:45:47;8.80;99.90
1766;DHT22;880;52.452;8.656;2023-02-20T14:48:28;8.80;99.90
1766;DHT22;880;52.452;8.656;2023-02-20T14:53:42;8.90;99.90
1766;DHT22;880;52.452;8.656;2023-02-20T14:56:15;8.90;99.90
1766;DHT22;880;52.452;8.656;2023-02-20T14:58:44;8.90;99.90
1766;DHT22;880;52.452;8.656;2023-02-20T15:01:17;8.90;99.90
1766;DHT22;880;52.452;8.656;2023-02-20T15:04:03;8.90;99.90
1766;DHT22;880;52.452;8.656;2023-02-20T15:06:34;8.90;99.90
1766;DHT22;880;52.452;8.656;2023-02-20T15:09:03;8.90;99.90
1766;DHT22;880;52.452;8.656;2023-02-20T15:11:56;8.90;99.90
1766;DHT22;880;52.452;8.656;2023-02-20T15:14:26;8.90;99.90
1766;DHT22;880;52.452;8.656;2023-02-20T15:19:54;8.90;99.90
1766;DHT22;880;52.452;8.656;2023-02-20T15:22:27;8.90;99.90
1766;DHT22;880;52.452;8.656;2023-02-20T15:28:22;8.90;99.90
1766;DHT22;880;52.452;8.656;2023-02-20T15:33:45;8.90;99.90
1766;DHT22;880;52.452;8.656;2023-02-20T15:36:17;8.90;99.90
1766;DHT22;880;52.452;8.656;2023-02-20T15:38:46;8.90;99.90
1766;DHT22;880;52.452;8.656;2023-02-20T15:41:13;8.90;99.90
1766;DHT22;880;52.452;8.656;2023-02-20T15:43:40;8.90;99.90
1766;DHT22;880;52.452;8.656;2023-02-20T15:46:16;8.90;99.90
1766;DHT22;880;52.452;8.656;2023-02-20T15:48:43;8.90;99.90
1766;DHT22;880;52.452;8.656;2023-02-20T15:51:12;8.90;99.90
1766;DHT22;880;52.452;8.656;2023-02-20T15:53:41;9.00;99.90
1766;DHT22;880;52.452;8.656;2023-02-20T15:56:11;9.00;99.90
1766;DHT22;880;52.452;8.656;2023-02-20T15:58:39;9.00;99.90
1766;DHT22;880;52.452;8.656;2023-02-20T16:01:11;9.00;99.90
1766;DHT22;880;52.452;8.656;2023-02-20T16:03:38;8.90;99.90
1766;DHT22;880;52.452;8.656;2023-02-20T16:06:18;8.90;99.90
1766;DHT22;880;52.452;8.656;2023-02-20T16:08:49;9.00;99.90
1766;DHT22;880;52.452;8.656;2023-02-20T16:11:21;9.00;99.90
1766;DHT22;880;52.452;8.656;2023-02-20T16:13:58;9.00;99.90
1766;DHT22;880;52.452;8.656;2023-02-20T16:16:33;9.00;99.90
1766;DHT22;880;52.452;8.656;2023-02-20T16:19:02;9.00;99.90
1766;DHT22;880;52.452;8.656;2023-02-20T16:21:30;9.00;99.90
1766;DHT22;880;52.452;8.656;2023-02-20T16:23:57;9.00;99.90
1766;DHT22;880;52.452;8.656;2023-02-20T16:26:30;9.00;99.90
1766;DHT22;880;52.452;8.656;2023-02-20T16:29:05;9.00;99.90
1766;DHT22;880;52.452;8.656;2023-02-20T16:34:21;9.00;99.90
1766;DHT22;880;52.452;8.656;2023-02-20T16:36:50;9.00;99.90
1766;DHT22;880;52.452;8.656;2023-02-20T16:39:18;9.00;99.90
1766;DHT22;880;52.452;8.656;2023-02-20T16:41:52;9.00;99.90
1766;DHT22;880;52.452;8.656;2023-02-20T16:44:23;9.10;99.90
1766;DHT22;880;52.452;8.656;2023-02-20T16:46:57;9.10;99.90
1766;DHT22;880;52.452;8.656;2023-02-20T16:49:24;9.00;99.90
1766;DHT22;880;52.452;8.656;2023-02-20T16:51:52;9.10;99.90
1766;DHT22;880;52.452;8.656;2023-02-20T16:54:27;9.10;99.90
1766;DHT22;880;52.452;8.656;2023-02-20T16:56:54;9.10;99.90
1766;DHT22;880;52.452;8.656;2023-02-20T16:59:21;9.10;99.90
1766;DHT22;880;52.452;8.656;2023-02-20T17:01:48;9.10;99.90
1766;DHT22;880;52.452;8.656;2023-02-20T17:04:17;9.10;99.90
1766;DHT22;880;52.452;8.656;2023-02-20T17:06:45;9.10;99.90
1766;DHT22;880;52.452;8.656;2023-02-20T17:09:12;9.10;99.90
1766;DHT22;880;52.452;8.656;2023-02-20T17:11:39;9.10;99.90
1766;DHT22;880;52.452;8.656;2023-02-20T17:14:07;9.10;99.90
1766;DHT22;880;52.452;8.656;2023-02-20T17:16:34;9.10;99.90
1766;DHT22;880;52.452;8.656;2023-02-20T17:19:01;9.10;99.90
1766;DHT22;880;52.452;8.656;2023-02-20T17:21:28;9.10;99.90
1766;DHT22;880;52.452;8.656;2023-02-20T17:23:55;9.10;99.90
1766;DHT22;880;52.452;8.656;2023-02-20T17:26:21;9.20;99.90
1766;DHT22;880;52.452;8.656;2023-02-20T17:28:51;9.20;99.90
1766;DHT22;880;52.452;8.656;2023-02-20T17:31:19;9.20;99.90
1766;DHT22;880;52.452;8.656;2023-02-20T17:33:47;9.20;99.90
1766;DHT22;880;52.452;8.656;2023-02-20T17:36:14;9.20;99.90
1766;DHT22;880;52.452;8.656;2023-02-20T17:38:41;9.30;99.90
1766;DHT22;880;52.452;8.656;2023-02-20T17:41:08;9.20;99.90
1766;DHT22;880;52.452;8.656;2023-02-20T17:43:37;9.20;99.90
1766;DHT22;880;52.452;8.656;2023-02-20T17:46:04;9.20;99.90
1766;DHT22;880;52.452;8.656;2023-02-20T17:48:31;9.20;99.90
1766;DHT22;880;52.452;8.656;2023-02-20T17:50:58;9.20;99.90
1766;DHT22;880;52.452;8.656;2023-02-20T17:53:25;9.30;99.90
1766;DHT22;880;52.452;8.656;2023-02-20T17:55:52;9.30;99.90
1766;DHT22;880;52.452;8.656;2023-02-20T17:58:19;9.30;99.90
1766;DHT22;880;52.452;8.656;2023-02-20T18:00:46;9.30;99.90
1766;DHT22;880;52.452;8.656;2023-02-20T18:03:13;9.30;99.90
1766;DHT22;880;52.452;8.656;2023-02-20T18:05:40;9.40;99.90
1766;DHT22;880;52.452;8.656;2023-02-20T18:08:07;9.40;99.90
1766;DHT22;880;52.452;8.656;2023-02-20T18:10:34;9.40;99.90
1766;DHT22;880;52.452;8.656;2023-02-20T18:13:01;9.40;99.90
1766;DHT22;880;52.452;8.656;2023-02-20T18:15:35;9.40;99.90
1766;DHT22;880;52.452;8.656;2023-02-20T18:18:03;9.40;99.90
1766;DHT22;880;52.452;8.656;2023-02-20T18:20:31;9.40;99.90
1766;DHT22;880;52.452;8.656;2023-02-20T18:22:58;9.40;99.90
1766;DHT22;880;52.452;8.656;2023-02-20T18:25:25;9.50;99.90
1766;DHT22;880;52.452;8.656;2023-02-20T18:28:06;9.50;99.90
1766;DHT22;880;52.452;8.656;2023-02-20T18:30:33;9.50;99.90
1766;DHT22;880;52.452;8.656;2023-02-20T18:33:00;9.50;99.90
1766;DHT22;880;52.452;8.656;2023-02-20T18:35:27;9.50;99.90
1766;DHT22;880;52.452;8.656;2023-02-20T18:37:54;9.50;99.90
1766;DHT22;880;52.452;8.656;2023-02-20T18:40:21;9.40;99.90
1766;DHT22;880;52.452;8.656;2023-02-20T18:42:49;9.40;99.90
1766;DHT22;880;52.452;8.656;2023-02-20T18:45:18;9.40;99.90
1766;DHT22;880;52.452;8.656;2023-02-20T18:47:52;9.50;99.90
1766;DHT22;880;52.452;8.656;2023-02-20T18:50:20;9.50;99.90
1766;DHT22;880;52.452;8.656;2023-02-20T18:52:47;9.50;99.90
1766;DHT22;880;52.452;8.656;2023-02-20T18:55:15;9.50;99.90
1766;DHT22;880;52.452;8.656;2023-02-20T18:57:47;9.50;99.90
1766;DHT22;880;52.452;8.656;2023-02-20T19:00:20;9.50;99.90
1766;DHT22;880;52.452;8.656;2023-02-20T19:02:51;9.50;99.90
1766;DHT22;880;52.452;8.656;2023-02-20T19:05:20;9.50;99.90
1766;DHT22;880;52.452;8.656;2023-02-20T19:07:48;9.50;99.90
1766;DHT22;880;52.452;8.656;2023-02-20T19:10:20;9.50;99.90
1766;DHT22;880;52.452;8.656;2023-02-20T19:12:52;9.50;99.90
1766;DHT22;880;52.452;8.656;2023-02-20T19:15:20;9.40;99.90
1766;DHT22;880;52.452;8.656;2023-02-20T19:17:51;9.40;99.90
1766;DHT22;880;52.452;8.656;2023-02-20T19:20:21;9.50;99.90
1766;DHT22;880;52.452;8.656;2023-02-20T19:22:54;9.50;99.90